aviador You're here:

HECA Decoded Metar

CAIRO in EGYPT
Report Time2018-05-21 20:00:00
UTC Time2018-05-21 20:18:13
Flight Rules vfr VFR
Wind040° at 07 kt
W.Decomp.*RWY 05: 6.8 kt HW 1.7 kt LCW
W.Rank040° ranks 5
Current wind is below 040° avg. (8.1)
Visibility9999 m
Phenomena:N/A
Clouds:N/A
Expected CloudBase > 9,200 ft AGL from Temp-Dew spread
CeilingNone
Temp33°C (ISA +18)
Dew Point10°C (24% RH)
Heat Index31.3°C
AAT30.4°C
QNH1012 hPa
Density Alt2,549 ft
Elevation243 ft
Report Wrong Elevation
Raw Report
HECA 212000Z 04007KT CAVOK 33/10 Q1012 NOSIG=

Extra information for HECA:More info

Metar Taf Metar & Taf Last 4 Metars F.Rules Stats Wind Profile Meteogram Temp Stats Airport Information Weather charts Add Link Nearby VenuesMetar ALERT Operation Metar Decoded Social comments